Attleboro Falls, MA

5:55 PM EDT on September 03, 2015 (GMT -0400)
Bungay Lake | | Change Station
CLOSE
Current Station
Personal Weather Station
Location: North Attleborough, MA
Elevation: 158 ft
Nearby Weather Stations

Elev 158 ft 41.99 °N, 71.28 °W | Updated 4 seconds ago

Clear
Clear
83.5 °F
Feels Like 86 °F
N
1.1
Wind Variable Wind from ENE
Gusts 1.1 mph

Today
High -- | Low -- °F
--% Chance of Precip.
Yesterday
High -- | Low -- °F
Precip. -- in
6:12 AM 7:15 PM
Waning Gibbous, 66% visible
Pressure 29.86 in
Visibility 10.0 miles
Clouds Clear
Heat Index 86 °F
Dew Point 67 °F
Humidity 58%
Rainfall 0.00 in
Snow Depth Not available.
UV 1 out of 12
Pollen 7.90 out of 12
Air Quality Not available.
Flu Activity Not available.
METAR KSFZ 032135Z AUTO 11006KT 10SM CLR 28/19 A2986 RMK AO1
Pressure 29.86 in
Visibility 10.0 miles
Clouds Clear
Heat Index 86 °F
Dew Point 67 °F
Humidity 58%
Rainfall 0.00 in
Snow Depth Not available.
UV 1 out of 12
Pollen 7.90 out of 12
Air Quality Not available.
Flu Activity Not available.
METAR KSFZ 032135Z AUTO 11006KT 10SM CLR 28/19 A2986 RMK AO1

10-Day Weather Forecast

×

Almanac

Astronomy

Sep. 03, 2015 Rise Set
Actual Time
Civil Twilight
Nautical Twilight
Astronomical Twilight
Moon
Length of Visible Light
Length of Day
Tomorrow will be .
, % of the Moon is Illuminated

Today's Extremes

State Highs State Lows

Community

WunderPhotos

Upload Photos

1,852,045 photos uploaded!

WunderBlogs® & News

Nearby

Air Quality

  Air Quality AQ Index Pollutant
Not available.

Snow Depth

Station Depth Elevation

Earthquake Activity

City Distance Mag. Time & Date
Minimum magnitude displayed is 2.5.

Coastal Water Temperatures

Place Temperature

Stations

Nearby Weather Stations

Station Location Temp. Windchill Dew Point Humidity Wind Precip. Elev Updated Type